createdAt,value
2018-09-24T00:00:35.736Z,11.4
2018-09-24T00:01:36.000Z,11.41
2018-09-24T00:02:35.784Z,11.44
2018-09-24T00:03:35.980Z,11.41
2018-09-24T00:04:35.968Z,11.48
2018-09-24T00:05:35.978Z,11.48
2018-09-24T00:06:35.709Z,11.55
2018-09-24T00:07:35.509Z,11.51
2018-09-24T00:08:35.715Z,11.51
2018-09-24T00:09:35.954Z,11.62
2018-09-24T00:10:35.938Z,11.54
2018-09-24T00:11:35.440Z,11.57
2018-09-24T00:12:35.934Z,11.62
2018-09-24T00:13:35.698Z,11.59
2018-09-24T00:14:35.668Z,11.54
2018-09-24T00:15:35.934Z,11.59
2018-09-24T00:16:35.720Z,11.54
2018-09-24T00:17:35.818Z,11.57
2018-09-24T00:18:35.471Z,11.52
2018-09-24T00:19:35.675Z,11.48
2018-09-24T00:20:35.903Z,11.54
2018-09-24T00:21:35.898Z,11.52
2018-09-24T00:22:35.713Z,11.5
2018-09-24T00:23:35.651Z,11.52
2018-09-24T00:24:35.894Z,11.57
2018-09-24T00:25:35.634Z,11.48
2018-09-24T00:26:35.629Z,11.43
2018-09-24T00:27:37.236Z,11.51
2018-09-24T00:28:35.626Z,11.44
2018-09-24T00:29:35.874Z,11.41
2018-09-24T00:30:35.629Z,11.44
2018-09-24T00:31:35.872Z,11.45
2018-09-24T00:32:35.647Z,11.41
2018-09-24T00:33:35.608Z,11.51
2018-09-24T00:34:35.349Z,11.43
2018-09-24T00:35:35.340Z,11.43
2018-09-24T00:36:35.612Z,11.51
2018-09-24T00:37:35.348Z,11.43
2018-09-24T00:38:35.854Z,11.5
2018-09-24T00:39:35.843Z,11.51
2018-09-24T00:40:35.590Z,11.47
2018-09-24T00:41:35.581Z,11.54
2018-09-24T00:42:35.841Z,11.41
2018-09-24T00:43:35.790Z,11.4
2018-09-24T00:44:35.838Z,11.41
2018-09-24T00:45:35.827Z,11.43
2018-09-24T00:46:35.833Z,11.51
2018-09-24T00:47:35.872Z,11.5
2018-09-24T00:48:35.618Z,11.44
2018-09-24T00:49:35.819Z,11.44
2018-09-24T00:50:35.324Z,11.33
2018-09-24T00:51:35.576Z,11.35
2018-09-24T00:52:35.552Z,11.41
2018-09-24T00:53:35.807Z,11.29
2018-09-24T00:54:35.280Z,11.18
2018-09-24T00:55:35.812Z,11.11
2018-09-24T00:56:35.524Z,11.12
2018-09-24T00:57:35.532Z,11.1
2018-09-24T00:58:35.592Z,10.93
2018-09-24T00:59:35.518Z,10.94
2018-09-24T01:00:35.245Z,10.94
2018-09-24T01:01:35.511Z,10.99
2018-09-24T01:02:35.248Z,10.9
2018-09-24T01:03:35.548Z,10.94
2018-09-24T01:04:35.266Z,10.94
2018-09-24T01:05:35.255Z,10.87
2018-09-24T01:06:35.496Z,10.92
2018-09-24T01:07:35.545Z,10.87
2018-09-24T01:08:35.756Z,10.97
2018-09-24T01:09:35.209Z,10.97
2018-09-24T01:10:35.502Z,10.96
2018-09-24T01:11:35.464Z,11.04
2018-09-24T01:12:35.473Z,11.08
2018-09-24T01:13:35.698Z,11.08
2018-09-24T01:14:35.196Z,11.05
2018-09-24T01:15:35.442Z,11.02
2018-09-24T01:16:35.447Z,11.07
2018-09-24T01:17:35.730Z,11.12
2018-09-24T01:18:35.276Z,11.12
2018-09-24T01:19:35.180Z,11.15
2018-09-24T01:20:35.436Z,11.1
2018-09-24T01:21:35.163Z,11.15
2018-09-24T01:22:35.708Z,11.19
2018-09-24T01:23:35.734Z,11.11
2018-09-24T01:24:35.397Z,11.18
2018-09-24T01:25:35.421Z,11.18
2018-09-24T01:26:35.402Z,11.18
2018-09-24T01:27:35.763Z,11.18
2018-09-24T01:28:35.450Z,11.26
2018-09-24T01:29:35.133Z,11.26
2018-09-24T01:30:35.375Z,11.26
2018-09-24T01:31:35.118Z,11.3
2018-09-24T01:32:35.638Z,11.25
2018-09-24T01:33:35.704Z,11.23
2018-09-24T01:34:35.383Z,11.19
2018-09-24T01:35:35.620Z,11.19
2018-09-24T01:36:35.357Z,11.15
2018-09-24T01:37:35.096Z,11.17
2018-09-24T01:38:35.141Z,11.12
2018-09-24T01:39:35.095Z,11.11
2018-09-24T01:40:35.338Z,11.15
2018-09-24T01:41:35.607Z,11.14
2018-09-24T01:42:35.334Z,11.12
2018-09-24T01:43:35.691Z,11.12
2018-09-24T01:44:35.584Z,11.15
2018-09-24T01:45:35.578Z,11.14
2018-09-24T01:46:35.313Z,11.15
2018-09-24T01:47:35.566Z,11.12
2018-09-24T01:48:35.615Z,11.18
2018-09-24T01:49:35.310Z,11.1
2018-09-24T01:50:35.560Z,11.15
2018-09-24T01:51:35.566Z,11.11
2018-09-24T01:52:35.546Z,11.12
2018-09-24T01:53:35.295Z,11.11
2018-09-24T01:54:35.293Z,11.12
2018-09-24T01:55:35.544Z,11.17
2018-09-24T01:56:35.540Z,11.17
2018-09-24T01:57:35.528Z,11.12
2018-09-24T01:58:35.608Z,11.19
2018-09-24T01:59:35.274Z,11.19
2018-09-24T02:00:35.282Z,11.15
2018-09-24T02:01:35.263Z,11.22
2018-09-24T02:02:35.247Z,11.26
2018-09-24T02:03:35.308Z,11.29
2018-09-24T02:04:34.983Z,11.27
2018-09-24T02:05:35.248Z,11.27
2018-09-24T02:06:35.495Z,11.23
2018-09-24T02:07:35.225Z,11.15
2018-09-24T02:08:35.225Z,11.23
2018-09-24T02:09:35.228Z,11.3
2018-09-24T02:10:35.490Z,11.22
2018-09-24T02:11:35.477Z,11.29
2018-09-24T02:12:35.301Z,11.29
2018-09-24T02:13:35.238Z,11.32
2018-09-24T02:14:35.211Z,11.26
2018-09-24T02:15:35.276Z,11.26
2018-09-24T02:16:35.242Z,11.26
2018-09-24T02:17:35.193Z,11.23
2018-09-24T02:18:35.654Z,11.18
2018-09-24T02:19:35.192Z,11.27
2018-09-24T02:20:35.464Z,11.26
2018-09-24T02:21:35.181Z,11.29
2018-09-24T02:22:35.183Z,11.25
2018-09-24T02:23:35.482Z,11.25
2018-09-24T02:24:35.182Z,11.22
2018-09-24T02:25:34.911Z,11.26
2018-09-24T02:26:35.421Z,11.29
2018-09-24T02:27:34.905Z,11.27
2018-09-24T02:28:35.450Z,11.22
2018-09-24T02:29:34.899Z,11.23
2018-09-24T02:30:35.423Z,11.08
2018-09-24T02:31:35.147Z,11.05
2018-09-24T02:32:35.392Z,11.05
2018-09-24T02:33:35.234Z,11.05
2018-09-24T02:34:35.387Z,10.94
2018-09-24T02:35:34.877Z,10.9
2018-09-24T02:36:34.879Z,10.93
2018-09-24T02:37:35.122Z,10.89
2018-09-24T02:38:35.161Z,10.9
2018-09-24T02:39:34.857Z,10.86
2018-09-24T02:40:35.362Z,10.79
2018-09-24T02:41:35.097Z,10.78
2018-09-24T02:42:35.093Z,10.78
2018-09-24T02:43:34.831Z,10.75
2018-09-24T02:44:35.106Z,10.78
2018-09-24T02:45:35.085Z,10.74
2018-09-24T02:46:35.084Z,10.72
2018-09-24T02:47:35.367Z,10.72
2018-09-24T02:48:34.869Z,10.76
2018-09-24T02:49:35.067Z,10.74
2018-09-24T02:50:35.321Z,10.72
2018-09-24T02:51:34.800Z,10.75
2018-09-24T02:52:35.044Z,10.74
2018-09-24T02:53:35.116Z,10.78
2018-09-24T02:54:34.789Z,10.72
2018-09-24T02:55:35.044Z,10.71
2018-09-24T02:56:35.040Z,10.71
2018-09-24T02:57:34.771Z,10.69
2018-09-24T02:58:35.102Z,10.74
2018-09-24T02:59:35.018Z,10.78
2018-09-24T03:00:35.271Z,10.79
2018-09-24T03:01:35.024Z,10.74
2018-09-24T03:02:35.004Z,10.82
2018-09-24T03:03:35.059Z,10.79
2018-09-24T03:04:35.005Z,10.78
2018-09-24T03:05:35.247Z,10.78
2018-09-24T03:06:35.009Z,10.84
2018-09-24T03:07:34.988Z,10.87
2018-09-24T03:08:34.989Z,10.9
2018-09-24T03:09:34.971Z,10.92
2018-09-24T03:10:34.972Z,10.93
2018-09-24T03:11:34.968Z,10.94
2018-09-24T03:12:35.239Z,10.86
2018-09-24T03:13:34.957Z,10.94
2018-09-24T03:14:34.701Z,10.93
2018-09-24T03:15:35.209Z,10.93
2018-09-24T03:16:35.196Z,10.84
2018-09-24T03:17:35.223Z,10.92
2018-09-24T03:18:34.830Z,10.9
2018-09-24T03:19:34.943Z,10.93
2018-09-24T03:20:34.686Z,10.9
2018-09-24T03:21:34.959Z,10.92
2018-09-24T03:22:34.669Z,10.87
2018-09-24T03:23:35.195Z,10.92
2018-09-24T03:24:35.179Z,10.87
2018-09-24T03:25:34.903Z,10.86
2018-09-24T03:26:34.914Z,10.9
2018-09-24T03:27:34.907Z,10.93
2018-09-24T03:28:34.692Z,10.87
2018-09-24T03:29:34.920Z,10.92
2018-09-24T03:30:34.881Z,10.9
2018-09-24T03:31:34.883Z,10.89
2018-09-24T03:32:35.143Z,10.89
2018-09-24T03:33:34.930Z,10.82
2018-09-24T03:34:34.876Z,10.86
2018-09-24T03:35:34.634Z,10.86
2018-09-24T03:36:34.861Z,10.82
2018-09-24T03:37:34.609Z,10.93
2018-09-24T03:38:34.861Z,10.97
2018-09-24T03:39:35.102Z,10.9
2018-09-24T03:40:35.151Z,10.9
2018-09-24T03:41:34.840Z,10.96
2018-09-24T03:42:34.855Z,10.94
2018-09-24T03:43:34.614Z,10.9
2018-09-24T03:44:35.107Z,10.87
2018-09-24T03:45:34.822Z,10.89
2018-09-24T03:46:34.827Z,10.9
2018-09-24T03:47:34.824Z,10.86
2018-09-24T03:48:34.868Z,10.81
2018-09-24T03:49:35.069Z,10.79
2018-09-24T03:50:34.559Z,10.72
2018-09-24T03:51:35.053Z,10.72
2018-09-24T03:52:34.798Z,10.67
2018-09-24T03:53:35.101Z,10.79
2018-09-24T03:54:35.196Z,10.67
2018-09-24T03:55:35.107Z,10.69
2018-09-24T03:56:35.040Z,10.57
2018-09-24T03:57:35.035Z,10.61
2018-09-24T03:58:35.023Z,10.61
2018-09-24T03:59:35.061Z,10.56
2018-09-24T04:00:34.776Z,10.54
2018-09-24T04:01:35.019Z,10.59
2018-09-24T04:02:35.039Z,10.51
2018-09-24T04:03:34.821Z,10.59
2018-09-24T04:04:35.130Z,10.48
2018-09-24T04:05:34.757Z,10.49
2018-09-24T04:06:34.730Z,10.54
2018-09-24T04:07:34.469Z,10.49
2018-09-24T04:08:34.783Z,10.44
2018-09-24T04:09:35.176Z,10.46
2018-09-24T04:10:34.721Z,10.41
2018-09-24T04:11:34.713Z,10.4
2018-09-24T04:12:34.712Z,10.37
2018-09-24T04:13:34.749Z,10.37
2018-09-24T04:14:34.961Z,10.37
2018-09-24T04:15:34.696Z,10.33
2018-09-24T04:16:34.696Z,10.34
2018-09-24T04:17:34.720Z,10.33
2018-09-24T04:18:35.032Z,10.4
2018-09-24T04:19:35.133Z,10.42
2018-09-24T04:20:34.935Z,10.3
2018-09-24T04:21:34.661Z,10.26
2018-09-24T04:22:34.656Z,10.28
2018-09-24T04:23:34.916Z,10.33
2018-09-24T04:24:34.922Z,10.26
2018-09-24T04:25:34.640Z,10.23
2018-09-24T04:26:35.011Z,10.25
2018-09-24T04:27:34.879Z,10.16
2018-09-24T04:28:34.684Z,10.22
2018-09-24T04:29:34.628Z,10.13
2018-09-24T04:30:34.634Z,10.09
2018-09-24T04:31:34.882Z,10.1
2018-09-24T04:32:34.630Z,10.16
2018-09-24T04:33:34.911Z,10.12
2018-09-24T04:34:34.851Z,10.12
2018-09-24T04:35:34.853Z,10.16
2018-09-24T04:36:34.593Z,10.19
2018-09-24T04:37:34.592Z,10.16
2018-09-24T04:38:34.583Z,10.22
2018-09-24T04:39:34.795Z,10.15
2018-09-24T04:40:34.839Z,10.17
2018-09-24T04:41:34.845Z,10.15
2018-09-24T04:42:34.579Z,10.2
2018-09-24T04:43:34.811Z,10.19
2018-09-24T04:44:34.813Z,10.07
2018-09-24T04:45:34.545Z,10.12
2018-09-24T04:46:34.804Z,10.15
2018-09-24T04:47:34.546Z,10.22
2018-09-24T04:48:34.838Z,10.2
2018-09-24T04:49:34.785Z,10.16
2018-09-24T04:50:34.780Z,10.15
2018-09-24T04:51:34.772Z,10.16
2018-09-24T04:52:34.777Z,10.15
2018-09-24T04:53:34.865Z,10.15
2018-09-24T04:54:34.522Z,10.22
2018-09-24T04:55:34.768Z,10.12
2018-09-24T04:56:34.250Z,10.13
2018-09-24T04:57:34.484Z,10.12
2018-09-24T04:58:34.871Z,10.01
2018-09-24T04:59:34.481Z,10.04
2018-09-24T05:00:34.736Z,10.05
2018-09-24T05:01:34.466Z,10.12
2018-09-24T05:02:34.723Z,10.05
2018-09-24T05:03:34.764Z,10.02
2018-09-24T05:04:34.702Z,10.1
2018-09-24T05:05:34.449Z,10.07
2018-09-24T05:06:34.439Z,10.05
2018-09-24T05:07:34.430Z,10.04
2018-09-24T05:08:34.426Z,10.04
2018-09-24T05:09:34.678Z,10.07
2018-09-24T05:10:34.690Z,10.07
2018-09-24T05:11:34.412Z,10.01
2018-09-24T05:12:34.663Z,10.04
2018-09-24T05:13:34.662Z,10.02
2018-09-24T05:14:34.413Z,9.98
2018-09-24T05:15:34.400Z,9.98
2018-09-24T05:16:34.495Z,10.01
2018-09-24T05:17:34.418Z,9.98
2018-09-24T05:18:34.637Z,9.92
2018-09-24T05:19:34.139Z,9.98
2018-09-24T05:20:34.374Z,9.92
2018-09-24T05:21:34.622Z,9.91
2018-09-24T05:22:34.627Z,9.92
2018-09-24T05:23:34.360Z,9.95
2018-09-24T05:24:34.356Z,9.86
2018-09-24T05:25:34.602Z,9.92
2018-09-24T05:26:34.665Z,9.86
2018-09-24T05:27:34.767Z,9.86
2018-09-24T05:28:34.610Z,9.89
2018-09-24T05:29:34.336Z,9.98
2018-09-24T05:30:34.583Z,9.98
2018-09-24T05:31:34.318Z,10.01
2018-09-24T05:32:34.838Z,9.99
2018-09-24T05:33:34.299Z,9.99
2018-09-24T05:34:34.824Z,9.97
2018-09-24T05:35:34.297Z,10.07
2018-09-24T05:36:34.556Z,10.07
2018-09-24T05:37:34.293Z,10.1
2018-09-24T05:38:34.534Z,10.1
2018-09-24T05:39:34.271Z,10.19
2018-09-24T05:40:34.533Z,10.13
2018-09-24T05:41:34.262Z,10.15
2018-09-24T05:42:34.266Z,10.12
2018-09-24T05:43:34.251Z,10.1
2018-09-24T05:44:34.291Z,10.1
2018-09-24T05:45:34.507Z,10.13
2018-09-24T05:46:34.249Z,10.15
2018-09-24T05:47:34.245Z,10.22
2018-09-24T05:48:34.479Z,10.22
2018-09-24T05:49:33.977Z,10.31
2018-09-24T05:50:34.492Z,10.26
2018-09-24T05:51:34.477Z,10.41
2018-09-24T05:52:34.463Z,10.35
2018-09-24T05:53:34.231Z,10.42
2018-09-24T05:54:34.211Z,10.42
2018-09-24T05:55:34.469Z,10.46
2018-09-24T05:56:34.441Z,10.49
2018-09-24T05:57:34.194Z,10.51
2018-09-24T05:58:34.442Z,10.54
2018-09-24T05:59:34.434Z,10.6
2018-09-24T06:00:33.936Z,10.57
2018-09-24T06:01:34.428Z,10.64
2018-09-24T06:02:34.432Z,10.6
2018-09-24T06:03:34.437Z,10.64
2018-09-24T06:04:34.594Z,10.69
2018-09-24T06:05:34.408Z,10.69
2018-09-24T06:06:34.414Z,10.57
2018-09-24T06:07:34.410Z,10.67
2018-09-24T06:08:34.416Z,10.68
2018-09-24T06:09:34.387Z,10.74
2018-09-24T06:10:33.888Z,10.75
2018-09-24T06:11:34.147Z,10.72
2018-09-24T06:12:34.393Z,10.72
2018-09-24T06:13:34.572Z,10.75
2018-09-24T06:14:33.872Z,10.76
2018-09-24T06:15:34.407Z,10.74
2018-09-24T06:16:34.377Z,10.72
2018-09-24T06:17:34.138Z,10.82
2018-09-24T06:18:34.356Z,10.82
2018-09-24T06:19:34.418Z,10.79
2018-09-24T06:20:34.360Z,10.82
2018-09-24T06:21:34.330Z,10.86
2018-09-24T06:22:34.321Z,10.89
2018-09-24T06:23:33.818Z,10.92
2018-09-24T06:24:34.323Z,10.94
2018-09-24T06:25:34.312Z,10.96
2018-09-24T06:26:34.093Z,10.99
2018-09-24T06:27:34.159Z,11.05
2018-09-24T06:28:34.331Z,11.04
2018-09-24T06:29:34.081Z,11.02
2018-09-24T06:30:34.059Z,10.89
2018-09-24T06:31:34.313Z,10.9
2018-09-24T06:32:34.305Z,10.92
2018-09-24T06:33:34.028Z,10.99
2018-09-24T06:34:34.164Z,10.94
2018-09-24T06:35:34.285Z,11.04
2018-09-24T06:36:33.761Z,11.02
2018-09-24T06:37:34.272Z,11.05
2018-09-24T06:38:34.273Z,11.14
2018-09-24T06:39:34.364Z,11.14
2018-09-24T06:40:34.019Z,11.1
2018-09-24T06:41:34.265Z,11.17
2018-09-24T06:42:34.251Z,11.12
2018-09-24T06:43:34.261Z,11.18
2018-09-24T06:44:34.257Z,11.22
2018-09-24T06:45:34.250Z,11.19
2018-09-24T06:46:33.997Z,11.29
2018-09-24T06:47:34.242Z,11.23
2018-09-24T06:48:34.254Z,11.37
2018-09-24T06:49:34.354Z,11.27
2018-09-24T06:50:34.235Z,11.41
2018-09-24T06:51:33.972Z,11.44
2018-09-24T06:52:33.975Z,11.41
2018-09-24T06:53:34.236Z,11.43
2018-09-24T06:54:34.205Z,11.45
2018-09-24T06:55:34.213Z,11.37
2018-09-24T06:56:34.200Z,11.81
2018-09-24T06:57:34.206Z,12.21
2018-09-24T06:58:34.206Z,13.04
2018-09-24T06:59:34.383Z,13.68
2018-09-24T07:00:33.702Z,13.96
2018-09-24T07:01:33.940Z,14.14
2018-09-24T07:02:33.673Z,14.59
2018-09-24T07:03:34.221Z,14.77
2018-09-24T07:04:34.290Z,14.7
2018-09-24T07:05:34.703Z,14.86
2018-09-24T07:06:34.193Z,15.07
2018-09-24T07:07:33.673Z,15.14
2018-09-24T07:08:33.931Z,15.02
2018-09-24T07:09:33.921Z,14.86
2018-09-24T07:10:33.933Z,14.62
2018-09-24T07:11:34.179Z,14.6
2018-09-24T07:12:33.655Z,14.65
2018-09-24T07:13:33.901Z,14.41
2018-09-24T07:14:34.183Z,14.23
2018-09-24T07:15:34.183Z,13.97
2018-09-24T07:16:34.183Z,13.83
2018-09-24T07:17:33.643Z,13.56
2018-09-24T07:18:34.180Z,13.37
2018-09-24T07:19:34.214Z,13.16
2018-09-24T07:20:33.646Z,13.13
2018-09-24T07:21:34.395Z,13.15
2018-09-24T07:22:33.901Z,13.15
2018-09-24T07:23:33.651Z,13.56
2018-09-24T07:24:33.890Z,13.96
2018-09-24T07:25:33.648Z,13.9
2018-09-24T07:26:34.181Z,13.89
2018-09-24T07:27:33.675Z,13.79
2018-09-24T07:28:34.474Z,13.95
2018-09-24T07:29:33.906Z,14.05
2018-09-24T07:30:33.899Z,14.41
2018-09-24T07:31:34.183Z,14.73
2018-09-24T07:32:33.887Z,14.97
2018-09-24T07:33:33.879Z,15.46
2018-09-24T07:34:34.216Z,16.05
2018-09-24T07:35:34.170Z,16.23
2018-09-24T07:36:34.151Z,16.5
2018-09-24T07:37:33.890Z,16.09
2018-09-24T07:38:33.887Z,16.05
2018-09-24T07:39:33.893Z,16.13
2018-09-24T07:40:33.635Z,15.92
2018-09-24T07:41:33.899Z,15.24
2018-09-24T07:42:33.928Z,14.65
2018-09-24T07:43:34.497Z,14.36
2018-09-24T07:44:33.892Z,14.35
2018-09-24T07:45:33.894Z,14.63
2018-09-24T07:46:33.903Z,15.22
2018-09-24T07:47:34.165Z,15.84
2018-09-24T07:48:34.162Z,16.75
2018-09-24T07:49:33.898Z,17.41
2018-09-24T07:50:33.891Z,17.97
2018-09-24T07:51:33.895Z,18.26
2018-09-24T07:52:33.896Z,18.65
2018-09-24T07:53:33.645Z,18.41
2018-09-24T07:54:34.192Z,18.03
2018-09-24T07:55:34.425Z,17.8
2018-09-24T07:56:34.171Z,17.71
2018-09-24T07:57:33.910Z,17.9
2018-09-24T07:58:33.923Z,18.04
2018-09-24T07:59:34.186Z,18.2
2018-09-24T08:00:33.903Z,18.26
2018-09-24T08:01:34.194Z,18.4
2018-09-24T08:02:33.910Z,18.74
2018-09-24T08:03:33.914Z,18.93
2018-09-24T08:04:33.979Z,19.18
2018-09-24T08:05:33.915Z,19.31
2018-09-24T08:06:33.921Z,19.14
2018-09-24T08:07:34.172Z,18.68
2018-09-24T08:08:34.201Z,18.05
2018-09-24T08:09:33.922Z,17.65
2018-09-24T08:10:34.194Z,17.19
2018-09-24T08:11:33.927Z,16.76
2018-09-24T08:12:33.943Z,16.16
2018-09-24T08:13:33.683Z,15.62
2018-09-24T08:14:34.208Z,15.31
2018-09-24T08:15:34.211Z,15.02
2018-09-24T08:16:33.954Z,14.58
2018-09-24T08:17:33.955Z,14.35
2018-09-24T08:18:34.240Z,14.14
2018-09-24T08:19:33.972Z,14.1
2018-09-24T08:20:34.203Z,13.92
2018-09-24T08:21:33.758Z,13.81
2018-09-24T08:22:34.220Z,13.87
2018-09-24T08:23:34.216Z,13.83
2018-09-24T08:24:34.245Z,13.71
2018-09-24T08:25:33.960Z,13.53
2018-09-24T08:26:33.956Z,13.57
2018-09-24T08:27:34.222Z,13.52
2018-09-24T08:28:33.688Z,13.67
2018-09-24T08:29:34.223Z,13.65
2018-09-24T08:30:34.230Z,13.71
2018-09-24T08:31:34.225Z,13.86
2018-09-24T08:32:34.244Z,13.99
2018-09-24T08:33:33.971Z,14.14
2018-09-24T08:34:34.016Z,14.1
2018-09-24T08:35:33.956Z,14.22
2018-09-24T08:36:33.962Z,14.1
2018-09-24T08:37:33.959Z,14.11
2018-09-24T08:38:33.937Z,14.14
2018-09-24T08:39:33.696Z,14.2
2018-09-24T08:40:33.940Z,14.3
2018-09-24T08:41:34.205Z,14.18
2018-09-24T08:42:33.709Z,14.17
2018-09-24T08:43:33.948Z,14.23
2018-09-24T08:44:33.941Z,14.36
2018-09-24T08:45:33.931Z,14.37
2018-09-24T08:46:33.933Z,14.37
2018-09-24T08:47:33.932Z,14.22
2018-09-24T08:48:33.675Z,14.25
2018-09-24T08:49:33.976Z,14.36
2018-09-24T08:50:34.199Z,14.43
2018-09-24T08:51:33.939Z,14.35
2018-09-24T08:52:33.923Z,14.32
2018-09-24T08:53:33.725Z,14.36
2018-09-24T08:54:34.193Z,14.28
2018-09-24T08:55:34.217Z,14.11
2018-09-24T08:56:33.987Z,14.1
2018-09-24T08:57:33.662Z,14.1
2018-09-24T08:58:33.910Z,14.11
2018-09-24T08:59:34.180Z,14.36
2018-09-24T09:00:34.182Z,14.44
2018-09-24T09:01:33.663Z,14.59
2018-09-24T09:02:34.270Z,14.89
2018-09-24T09:03:33.957Z,15.02
2018-09-24T09:04:33.915Z,15.02
2018-09-24T09:05:33.919Z,14.96
2018-09-24T09:06:33.921Z,14.97
2018-09-24T09:07:33.907Z,15.11
2018-09-24T09:08:34.171Z,15
2018-09-24T09:09:34.182Z,15.02
2018-09-24T09:10:34.236Z,14.82
2018-09-24T09:11:33.642Z,14.63
2018-09-24T09:12:34.169Z,14.65
2018-09-24T09:13:33.898Z,14.65
2018-09-24T09:14:33.902Z,14.51
2018-09-24T09:15:34.154Z,14.47
2018-09-24T09:16:34.366Z,14.53
2018-09-24T09:17:33.707Z,14.58
2018-09-24T09:18:33.896Z,14.47
2018-09-24T09:19:33.897Z,14.48
2018-09-24T09:20:33.898Z,14.45
2018-09-24T09:21:33.642Z,14.45
2018-09-24T09:22:33.630Z,14.51
2018-09-24T09:23:33.895Z,14.53
2018-09-24T09:24:34.169Z,14.5
2018-09-24T09:25:33.882Z,14.51
2018-09-24T09:26:33.887Z,14.5
2018-09-24T09:27:33.879Z,14.54
2018-09-24T09:28:33.884Z,14.36
2018-09-24T09:29:34.467Z,14.41
2018-09-24T09:30:34.199Z,14.47
2018-09-24T09:31:33.661Z,14.51
2018-09-24T09:32:34.161Z,14.5
2018-09-24T09:33:34.178Z,14.41
2018-09-24T09:34:34.177Z,14.43
2018-09-24T09:35:33.635Z,14.5
2018-09-24T09:36:34.167Z,14.55
2018-09-24T09:37:34.147Z,14.55
2018-09-24T09:38:34.161Z,14.51
2018-09-24T09:39:34.146Z,14.35
2018-09-24T09:40:34.145Z,14.3
2018-09-24T09:41:33.883Z,14.25
2018-09-24T09:42:33.881Z,14.17
2018-09-24T09:43:33.866Z,14.14
2018-09-24T09:44:34.148Z,14.12
2018-09-24T09:45:34.138Z,14.07
2018-09-24T09:46:34.147Z,14.08
2018-09-24T09:47:33.609Z,14.05
2018-09-24T09:48:34.117Z,14.11
2018-09-24T09:49:33.865Z,14.28
2018-09-24T09:50:34.121Z,14.47
2018-09-24T09:51:33.599Z,14.53
2018-09-24T09:52:33.847Z,14.66
2018-09-24T09:53:33.954Z,14.6
2018-09-24T09:54:33.847Z,14.66
2018-09-24T09:55:33.589Z,14.68
2018-09-24T09:56:33.845Z,14.63
2018-09-24T09:57:34.133Z,14.81
2018-09-24T09:58:33.884Z,14.84
2018-09-24T09:59:33.841Z,14.92
2018-09-24T10:00:34.135Z,15.04
2018-09-24T10:01:33.836Z,14.99
2018-09-24T10:02:34.129Z,14.99
2018-09-24T10:03:34.116Z,14.94
2018-09-24T10:04:33.897Z,14.97
2018-09-24T10:05:34.100Z,14.96
2018-09-24T10:06:33.831Z,15.06
2018-09-24T10:07:33.590Z,15.07
2018-09-24T10:08:34.112Z,14.96
2018-09-24T10:09:34.101Z,14.82
2018-09-24T10:10:33.821Z,14.66
2018-09-24T10:11:33.824Z,14.41
2018-09-24T10:12:34.134Z,14.35
2018-09-24T10:13:34.095Z,14.33
2018-09-24T10:14:34.113Z,14.35
2018-09-24T10:15:33.902Z,14.33
2018-09-24T10:16:33.830Z,14.48
2018-09-24T10:17:33.822Z,14.6
2018-09-24T10:18:34.141Z,14.66
2018-09-24T10:19:34.098Z,14.63
2018-09-24T10:20:34.082Z,14.62
2018-09-24T10:21:34.112Z,14.81
2018-09-24T10:22:34.211Z,14.96
2018-09-24T10:23:33.824Z,14.94
2018-09-24T10:24:33.570Z,14.81
2018-09-24T10:25:34.102Z,14.89
2018-09-24T10:26:34.091Z,14.89
2018-09-24T10:27:34.092Z,15
2018-09-24T10:28:33.546Z,15.02
2018-09-24T10:29:33.798Z,15.07
2018-09-24T10:30:34.076Z,15.27
2018-09-24T10:31:33.798Z,15.25
2018-09-24T10:32:33.805Z,15.31
2018-09-24T10:33:34.262Z,15.36
2018-09-24T10:34:33.804Z,15.43
2018-09-24T10:35:33.811Z,15.42
2018-09-24T10:36:34.078Z,15.47
2018-09-24T10:37:34.085Z,15.44
2018-09-24T10:38:34.147Z,15.49
2018-09-24T10:39:34.155Z,15.36
2018-09-24T10:40:34.054Z,15.19
2018-09-24T10:41:34.054Z,15.06
2018-09-24T10:42:34.072Z,15.11
2018-09-24T10:43:33.803Z,15.04
2018-09-24T10:44:33.786Z,15.02
2018-09-24T10:45:33.805Z,15.06
2018-09-24T10:46:34.049Z,15.06
2018-09-24T10:47:34.057Z,15.1
2018-09-24T10:48:33.786Z,15.06
2018-09-24T10:49:34.047Z,15.02
2018-09-24T10:50:33.788Z,14.97
2018-09-24T10:51:33.530Z,14.84
2018-09-24T10:52:34.050Z,14.68
2018-09-24T10:53:33.799Z,14.53
2018-09-24T10:54:33.572Z,14.63
2018-09-24T10:55:34.047Z,14.77
2018-09-24T10:56:33.519Z,14.79
2018-09-24T10:57:34.043Z,14.97
2018-09-24T10:58:33.782Z,15.02
2018-09-24T10:59:34.464Z,15.19
2018-09-24T11:00:34.046Z,15.35
2018-09-24T11:01:33.514Z,15.42
2018-09-24T11:02:33.514Z,15.43
2018-09-24T11:03:34.045Z,15.42
2018-09-24T11:04:34.037Z,15.43
2018-09-24T11:05:34.131Z,15.44
2018-09-24T11:06:34.045Z,15.24
2018-09-24T11:07:34.047Z,14.99
2018-09-24T11:08:34.050Z,14.86
2018-09-24T11:09:34.046Z,14.91
2018-09-24T11:10:34.067Z,14.85
2018-09-24T11:11:33.766Z,14.77
2018-09-24T11:12:34.036Z,14.78
2018-09-24T11:13:34.031Z,14.81
2018-09-24T11:14:33.761Z,14.81
2018-09-24T11:15:33.818Z,14.73
2018-09-24T11:16:34.239Z,14.73
2018-09-24T11:17:34.809Z,14.88
2018-09-24T11:18:33.774Z,14.91
2018-09-24T11:19:33.748Z,14.97
2018-09-24T11:20:33.759Z,15.07
2018-09-24T11:21:33.747Z,15.27
2018-09-24T11:22:34.000Z,15.21
2018-09-24T11:23:34.096Z,15.18
2018-09-24T11:24:33.495Z,15.17
2018-09-24T11:25:34.000Z,15.19
2018-09-24T11:26:36.782Z,15.21
2018-09-24T11:27:33.746Z,15.47
2018-09-24T11:28:33.998Z,15.68
2018-09-24T11:29:33.999Z,15.9
2018-09-24T11:30:33.503Z,16.04
2018-09-24T11:31:34.029Z,16.16
2018-09-24T11:32:33.485Z,16.13
2018-09-24T11:33:33.747Z,16.04
2018-09-24T11:34:33.745Z,16.09
2018-09-24T11:35:33.743Z,15.79
2018-09-24T11:36:34.006Z,15.65
2018-09-24T11:37:34.176Z,15.65
2018-09-24T11:38:33.725Z,15.51
2018-09-24T11:39:33.726Z,15.46
2018-09-24T11:40:33.990Z,15.4
2018-09-24T11:41:33.728Z,15.42
2018-09-24T11:42:33.991Z,15.47
2018-09-24T11:43:33.980Z,15.46
2018-09-24T11:44:33.739Z,15.52
2018-09-24T11:45:33.727Z,15.51
2018-09-24T11:46:33.909Z,15.59
2018-09-24T11:47:33.996Z,15.73
2018-09-24T11:48:33.726Z,15.73
2018-09-24T11:49:33.735Z,15.7
2018-09-24T11:50:34.034Z,15.72
2018-09-24T11:51:33.724Z,15.62
2018-09-24T11:52:33.969Z,15.47
2018-09-24T11:53:33.724Z,15.27
2018-09-24T11:54:33.722Z,15.15
2018-09-24T11:55:33.458Z,15.02
2018-09-24T11:56:33.457Z,15.14
2018-09-24T11:57:33.722Z,15.02
2018-09-24T11:58:33.458Z,15.17
2018-09-24T11:59:33.492Z,15.09
2018-09-24T12:00:33.453Z,15.14
2018-09-24T12:01:33.725Z,15.27
2018-09-24T12:02:34.079Z,15.36
2018-09-24T12:03:33.965Z,15.51
2018-09-24T12:04:33.970Z,15.59
2018-09-24T12:05:33.716Z,15.77
2018-09-24T12:06:33.973Z,15.76
2018-09-24T12:07:33.708Z,15.62
2018-09-24T12:08:33.966Z,15.73
2018-09-24T12:09:33.711Z,15.77
2018-09-24T12:10:33.495Z,15.75
2018-09-24T12:11:33.958Z,15.77
2018-09-24T12:12:33.701Z,15.76
2018-09-24T12:13:33.703Z,15.76
2018-09-24T12:14:33.954Z,15.76
2018-09-24T12:15:33.963Z,15.83
2018-09-24T12:16:33.699Z,15.84
2018-09-24T12:17:33.966Z,16.01
2018-09-24T12:18:33.453Z,16.08
2018-09-24T12:19:33.714Z,16.05
2018-09-24T12:20:33.712Z,15.95
2018-09-24T12:21:33.965Z,15.84
2018-09-24T12:22:33.712Z,15.86
2018-09-24T12:23:33.753Z,16.05
2018-09-24T12:24:33.714Z,16.05
2018-09-24T12:25:34.501Z,16.23
2018-09-24T12:26:33.952Z,16.32
2018-09-24T12:27:33.699Z,16.33
2018-09-24T12:28:33.455Z,16.31
2018-09-24T12:29:33.698Z,16.17
2018-09-24T12:30:33.949Z,16.15
2018-09-24T12:31:33.706Z,16.16
2018-09-24T12:32:33.438Z,16.04
2018-09-24T12:33:33.958Z,16.04
2018-09-24T12:34:33.719Z,16
2018-09-24T12:35:34.019Z,16.08
2018-09-24T12:36:34.074Z,16.04
2018-09-24T12:37:33.711Z,16.13
2018-09-24T12:38:33.957Z,16.23
2018-09-24T12:39:33.692Z,16.08
2018-09-24T12:40:33.962Z,16.02
2018-09-24T12:41:34.005Z,16.04
2018-09-24T12:42:33.957Z,16.1
2018-09-24T12:43:33.951Z,16.09
2018-09-24T12:44:33.696Z,16.17
2018-09-24T12:45:33.441Z,16.32
2018-09-24T12:46:33.446Z,16.26
2018-09-24T12:47:33.948Z,16.26
2018-09-24T12:48:33.683Z,16.26
2018-09-24T12:49:33.931Z,16.17
2018-09-24T12:50:33.740Z,16.16
2018-09-24T12:51:33.690Z,16.2
2018-09-24T12:52:33.947Z,16.02
2018-09-24T12:53:34.237Z,15.8
2018-09-24T12:54:33.947Z,15.61
2018-09-24T12:55:33.682Z,15.68